sensor_id;sensor_type;location;lat;lon;timestamp;temperature;humidity
66257;DHT22;53049;43.446;3.698;2024-02-23T00:01:39;10.40;99.90
66257;DHT22;53049;43.446;3.698;2024-02-23T00:04:05;10.40;99.90
66257;DHT22;53049;43.446;3.698;2024-02-23T00:06:33;10.40;99.90
66257;DHT22;53049;43.446;3.698;2024-02-23T00:08:59;10.40;99.90
66257;DHT22;53049;43.446;3.698;2024-02-23T00:11:25;10.40;99.90
66257;DHT22;53049;43.446;3.698;2024-02-23T00:13:50;10.40;99.90
66257;DHT22;53049;43.446;3.698;2024-02-23T00:16:16;10.40;99.90
66257;DHT22;53049;43.446;3.698;2024-02-23T00:18:42;10.30;99.90
66257;DHT22;53049;43.446;3.698;2024-02-23T00:21:07;10.30;99.90
66257;DHT22;53049;43.446;3.698;2024-02-23T00:23:34;10.30;99.90
66257;DHT22;53049;43.446;3.698;2024-02-23T00:25:59;10.30;99.90
66257;DHT22;53049;43.446;3.698;2024-02-23T00:28:25;10.30;99.90
66257;DHT22;53049;43.446;3.698;2024-02-23T00:30:50;10.30;99.90
66257;DHT22;53049;43.446;3.698;2024-02-23T00:33:16;10.30;99.90
66257;DHT22;53049;43.446;3.698;2024-02-23T00:35:42;10.30;99.90
66257;DHT22;53049;43.446;3.698;2024-02-23T00:38:07;10.30;99.90
66257;DHT22;53049;43.446;3.698;2024-02-23T00:40:33;10.20;99.90
66257;DHT22;53049;43.446;3.698;2024-02-23T00:42:59;10.20;99.90
66257;DHT22;53049;43.446;3.698;2024-02-23T00:45:26;10.20;99.90
66257;DHT22;53049;43.446;3.698;2024-02-23T00:47:52;10.20;99.90
66257;DHT22;53049;43.446;3.698;2024-02-23T00:50:17;10.20;99.90
66257;DHT22;53049;43.446;3.698;2024-02-23T00:52:43;10.20;99.90
66257;DHT22;53049;43.446;3.698;2024-02-23T00:55:09;10.20;99.90
66257;DHT22;53049;43.446;3.698;2024-02-23T00:57:35;10.10;99.90
66257;DHT22;53049;43.446;3.698;2024-02-23T01:00:01;10.10;99.90
66257;DHT22;53049;43.446;3.698;2024-02-23T01:02:28;10.20;99.90
66257;DHT22;53049;43.446;3.698;2024-02-23T01:04:55;10.20;99.90
66257;DHT22;53049;43.446;3.698;2024-02-23T01:07:22;10.10;99.90
66257;DHT22;53049;43.446;3.698;2024-02-23T01:09:48;10.10;99.90
66257;DHT22;53049;43.446;3.698;2024-02-23T01:12:14;10.10;99.90
66257;DHT22;53049;43.446;3.698;2024-02-23T01:14:39;10.10;99.90
66257;DHT22;53049;43.446;3.698;2024-02-23T01:17:05;10.10;99.90
66257;DHT22;53049;43.446;3.698;2024-02-23T01:19:31;10.10;99.90
66257;DHT22;53049;43.446;3.698;2024-02-23T01:21:56;10.10;99.90
66257;DHT22;53049;43.446;3.698;2024-02-23T01:24:28;10.10;99.90
66257;DHT22;53049;43.446;3.698;2024-02-23T01:26:55;10.10;99.90
66257;DHT22;53049;43.446;3.698;2024-02-23T01:29:21;10.00;99.90
66257;DHT22;53049;43.446;3.698;2024-02-23T01:31:48;10.00;99.90
66257;DHT22;53049;43.446;3.698;2024-02-23T01:34:14;10.00;99.90
66257;DHT22;53049;43.446;3.698;2024-02-23T01:36:39;10.00;99.90
66257;DHT22;53049;43.446;3.698;2024-02-23T01:39:05;10.00;99.90
66257;DHT22;53049;43.446;3.698;2024-02-23T01:41:31;10.00;99.90
66257;DHT22;53049;43.446;3.698;2024-02-23T01:43:58;10.00;99.90
66257;DHT22;53049;43.446;3.698;2024-02-23T01:46:24;10.00;99.90
66257;DHT22;53049;43.446;3.698;2024-02-23T01:48:49;10.00;99.90
66257;DHT22;53049;43.446;3.698;2024-02-23T01:51:15;10.00;99.90
66257;DHT22;53049;43.446;3.698;2024-02-23T01:53:41;9.90;99.90
66257;DHT22;53049;43.446;3.698;2024-02-23T01:56:07;9.90;99.90
66257;DHT22;53049;43.446;3.698;2024-02-23T01:58:35;10.00;99.90
66257;DHT22;53049;43.446;3.698;2024-02-23T02:01:02;9.90;99.90
66257;DHT22;53049;43.446;3.698;2024-02-23T02:03:28;9.90;99.90
66257;DHT22;53049;43.446;3.698;2024-02-23T02:05:55;9.90;99.90
66257;DHT22;53049;43.446;3.698;2024-02-23T02:08:25;9.90;99.90
66257;DHT22;53049;43.446;3.698;2024-02-23T02:10:50;9.90;99.90
66257;DHT22;53049;43.446;3.698;2024-02-23T02:13:16;9.90;99.90
66257;DHT22;53049;43.446;3.698;2024-02-23T02:15:42;9.80;99.90
66257;DHT22;53049;43.446;3.698;2024-02-23T02:18:09;9.80;99.90
66257;DHT22;53049;43.446;3.698;2024-02-23T02:20:36;9.80;99.90
66257;DHT22;53049;43.446;3.698;2024-02-23T02:23:03;9.80;99.90
66257;DHT22;53049;43.446;3.698;2024-02-23T02:25:28;9.80;99.90
66257;DHT22;53049;43.446;3.698;2024-02-23T02:27:54;9.80;99.90
66257;DHT22;53049;43.446;3.698;2024-02-23T02:30:20;9.80;99.90
66257;DHT22;53049;43.446;3.698;2024-02-23T02:32:46;9.80;99.90
66257;DHT22;53049;43.446;3.698;2024-02-23T02:35:11;9.80;99.90
66257;DHT22;53049;43.446;3.698;2024-02-23T02:37:38;9.80;99.90
66257;DHT22;53049;43.446;3.698;2024-02-23T02:40:05;9.80;99.90
66257;DHT22;53049;43.446;3.698;2024-02-23T02:42:30;9.70;99.90
66257;DHT22;53049;43.446;3.698;2024-02-23T02:44:56;9.70;99.90
66257;DHT22;53049;43.446;3.698;2024-02-23T02:47:22;9.70;99.90
66257;DHT22;53049;43.446;3.698;2024-02-23T02:49:48;9.70;99.90
66257;DHT22;53049;43.446;3.698;2024-02-23T02:52:14;9.70;99.90
66257;DHT22;53049;43.446;3.698;2024-02-23T02:54:40;9.70;99.90
66257;DHT22;53049;43.446;3.698;2024-02-23T02:57:05;9.70;99.90
66257;DHT22;53049;43.446;3.698;2024-02-23T02:59:34;9.70;99.90
66257;DHT22;53049;43.446;3.698;2024-02-23T03:02:01;9.70;99.90
66257;DHT22;53049;43.446;3.698;2024-02-23T03:04:26;9.70;99.90
66257;DHT22;53049;43.446;3.698;2024-02-23T03:06:52;9.70;99.90
66257;DHT22;53049;43.446;3.698;2024-02-23T03:09:18;9.70;99.90
66257;DHT22;53049;43.446;3.698;2024-02-23T03:11:43;9.70;99.90
66257;DHT22;53049;43.446;3.698;2024-02-23T03:14:09;9.60;99.90
66257;DHT22;53049;43.446;3.698;2024-02-23T03:16:35;9.60;99.90
66257;DHT22;53049;43.446;3.698;2024-02-23T03:19:03;9.60;99.90
66257;DHT22;53049;43.446;3.698;2024-02-23T03:21:29;9.60;99.90
66257;DHT22;53049;43.446;3.698;2024-02-23T03:23:54;9.60;99.90
66257;DHT22;53049;43.446;3.698;2024-02-23T03:26:20;9.60;99.90
66257;DHT22;53049;43.446;3.698;2024-02-23T03:28:46;9.60;99.90
66257;DHT22;53049;43.446;3.698;2024-02-23T03:31:12;9.60;99.90
66257;DHT22;53049;43.446;3.698;2024-02-23T03:33:37;9.60;99.90
66257;DHT22;53049;43.446;3.698;2024-02-23T03:36:04;9.60;99.90
66257;DHT22;53049;43.446;3.698;2024-02-23T03:38:29;9.60;99.90
66257;DHT22;53049;43.446;3.698;2024-02-23T03:40:55;9.60;99.90
66257;DHT22;53049;43.446;3.698;2024-02-23T03:43:22;9.60;99.90
66257;DHT22;53049;43.446;3.698;2024-02-23T03:45:47;9.50;99.90
66257;DHT22;53049;43.446;3.698;2024-02-23T03:48:13;9.50;99.90
66257;DHT22;53049;43.446;3.698;2024-02-23T03:50:38;9.50;99.90
66257;DHT22;53049;43.446;3.698;2024-02-23T03:53:04;9.40;99.90
66257;DHT22;53049;43.446;3.698;2024-02-23T03:55:30;9.40;99.90
66257;DHT22;53049;43.446;3.698;2024-02-23T03:57:56;9.40;99.90
66257;DHT22;53049;43.446;3.698;2024-02-23T04:00:21;9.30;99.90
66257;DHT22;53049;43.446;3.698;2024-02-23T04:02:49;9.30;99.90
66257;DHT22;53049;43.446;3.698;2024-02-23T04:05:14;9.20;99.90
66257;DHT22;53049;43.446;3.698;2024-02-23T04:07:40;9.20;99.90
66257;DHT22;53049;43.446;3.698;2024-02-23T04:10:06;9.20;99.90
66257;DHT22;53049;43.446;3.698;2024-02-23T04:12:32;9.20;99.90
66257;DHT22;53049;43.446;3.698;2024-02-23T04:14:58;9.10;99.90
66257;DHT22;53049;43.446;3.698;2024-02-23T04:17:23;9.10;99.90
66257;DHT22;53049;43.446;3.698;2024-02-23T04:19:49;9.00;99.90
66257;DHT22;53049;43.446;3.698;2024-02-23T04:22:14;9.00;99.90
66257;DHT22;53049;43.446;3.698;2024-02-23T04:24:41;9.00;99.90
66257;DHT22;53049;43.446;3.698;2024-02-23T04:27:07;9.00;99.90
66257;DHT22;53049;43.446;3.698;2024-02-23T04:29:34;8.90;99.90
66257;DHT22;53049;43.446;3.698;2024-02-23T04:32:02;8.90;99.90
66257;DHT22;53049;43.446;3.698;2024-02-23T04:34:28;8.80;99.90
66257;DHT22;53049;43.446;3.698;2024-02-23T04:36:55;8.70;99.90
66257;DHT22;53049;43.446;3.698;2024-02-23T04:39:21;8.80;99.90
66257;DHT22;53049;43.446;3.698;2024-02-23T04:41:48;8.80;99.90
66257;DHT22;53049;43.446;3.698;2024-02-23T04:44:13;8.70;99.90
66257;DHT22;53049;43.446;3.698;2024-02-23T04:46:39;8.60;99.90
66257;DHT22;53049;43.446;3.698;2024-02-23T04:49:04;8.60;99.90
66257;DHT22;53049;43.446;3.698;2024-02-23T04:51:30;8.50;99.90
66257;DHT22;53049;43.446;3.698;2024-02-23T04:53:56;8.50;99.90
66257;DHT22;53049;43.446;3.698;2024-02-23T04:56:21;8.40;99.90
66257;DHT22;53049;43.446;3.698;2024-02-23T04:58:47;8.40;99.90
66257;DHT22;53049;43.446;3.698;2024-02-23T05:01:13;8.30;99.90
66257;DHT22;53049;43.446;3.698;2024-02-23T05:03:39;8.30;99.90
66257;DHT22;53049;43.446;3.698;2024-02-23T05:06:05;8.30;99.90
66257;DHT22;53049;43.446;3.698;2024-02-23T05:08:31;8.30;99.90
66257;DHT22;53049;43.446;3.698;2024-02-23T05:10:57;8.30;99.90
66257;DHT22;53049;43.446;3.698;2024-02-23T05:13:23;8.30;99.90
66257;DHT22;53049;43.446;3.698;2024-02-23T05:15:49;8.20;99.90
66257;DHT22;53049;43.446;3.698;2024-02-23T05:18:15;8.10;99.90
66257;DHT22;53049;43.446;3.698;2024-02-23T05:20:40;8.10;99.90
66257;DHT22;53049;43.446;3.698;2024-02-23T05:23:06;8.00;99.90
66257;DHT22;53049;43.446;3.698;2024-02-23T05:25:32;7.90;99.90
66257;DHT22;53049;43.446;3.698;2024-02-23T05:27:58;8.00;99.90
66257;DHT22;53049;43.446;3.698;2024-02-23T05:30:23;7.90;99.90
66257;DHT22;53049;43.446;3.698;2024-02-23T05:32:49;7.80;99.90
66257;DHT22;53049;43.446;3.698;2024-02-23T05:35:15;7.80;99.90
66257;DHT22;53049;43.446;3.698;2024-02-23T05:37:41;7.80;99.90
66257;DHT22;53049;43.446;3.698;2024-02-23T05:40:07;7.70;99.90
66257;DHT22;53049;43.446;3.698;2024-02-23T05:42:36;7.80;99.90
66257;DHT22;53049;43.446;3.698;2024-02-23T05:45:02;7.70;99.90
66257;DHT22;53049;43.446;3.698;2024-02-23T05:47:30;7.60;99.90
66257;DHT22;53049;43.446;3.698;2024-02-23T05:49:56;7.50;99.90
66257;DHT22;53049;43.446;3.698;2024-02-23T05:52:21;7.50;99.90
66257;DHT22;53049;43.446;3.698;2024-02-23T05:54:47;7.60;99.90
66257;DHT22;53049;43.446;3.698;2024-02-23T05:57:13;7.60;99.90
66257;DHT22;53049;43.446;3.698;2024-02-23T05:59:39;7.60;99.90
66257;DHT22;53049;43.446;3.698;2024-02-23T06:02:04;7.60;99.90
66257;DHT22;53049;43.446;3.698;2024-02-23T06:04:30;7.50;99.90
66257;DHT22;53049;43.446;3.698;2024-02-23T06:06:56;7.60;99.90
66257;DHT22;53049;43.446;3.698;2024-02-23T06:09:21;7.60;99.90
66257;DHT22;53049;43.446;3.698;2024-02-23T06:11:47;7.70;99.90
66257;DHT22;53049;43.446;3.698;2024-02-23T06:14:13;7.60;99.90
66257;DHT22;53049;43.446;3.698;2024-02-23T06:16:39;7.60;99.90
66257;DHT22;53049;43.446;3.698;2024-02-23T06:19:06;7.60;99.90
66257;DHT22;53049;43.446;3.698;2024-02-23T06:21:31;7.50;99.90
66257;DHT22;53049;43.446;3.698;2024-02-23T06:23:58;7.40;99.90
66257;DHT22;53049;43.446;3.698;2024-02-23T06:26:23;7.30;99.90
66257;DHT22;53049;43.446;3.698;2024-02-23T06:28:49;7.20;99.90
66257;DHT22;53049;43.446;3.698;2024-02-23T06:31:15;7.20;99.90
66257;DHT22;53049;43.446;3.698;2024-02-23T06:33:40;7.10;99.90
66257;DHT22;53049;43.446;3.698;2024-02-23T06:36:06;7.20;99.90
66257;DHT22;53049;43.446;3.698;2024-02-23T06:38:33;7.10;99.90
66257;DHT22;53049;43.446;3.698;2024-02-23T06:40:59;7.10;99.90
66257;DHT22;53049;43.446;3.698;2024-02-23T06:43:24;7.10;99.90
66257;DHT22;53049;43.446;3.698;2024-02-23T06:45:50;7.00;99.90
66257;DHT22;53049;43.446;3.698;2024-02-23T06:48:16;7.10;99.90
66257;DHT22;53049;43.446;3.698;2024-02-23T06:50:42;7.00;99.90
66257;DHT22;53049;43.446;3.698;2024-02-23T06:53:08;7.30;99.90
66257;DHT22;53049;43.446;3.698;2024-02-23T06:55:34;7.30;99.90
66257;DHT22;53049;43.446;3.698;2024-02-23T06:58:01;7.40;99.90
66257;DHT22;53049;43.446;3.698;2024-02-23T07:00:26;7.50;99.90
66257;DHT22;53049;43.446;3.698;2024-02-23T07:02:52;7.60;99.90
66257;DHT22;53049;43.446;3.698;2024-02-23T07:05:17;7.60;99.90
66257;DHT22;53049;43.446;3.698;2024-02-23T07:07:43;7.60;99.90
66257;DHT22;53049;43.446;3.698;2024-02-23T07:10:09;7.60;99.90
66257;DHT22;53049;43.446;3.698;2024-02-23T07:12:36;7.50;99.90
66257;DHT22;53049;43.446;3.698;2024-02-23T07:15:01;7.50;99.90
66257;DHT22;53049;43.446;3.698;2024-02-23T07:17:27;7.40;99.90
66257;DHT22;53049;43.446;3.698;2024-02-23T07:19:54;7.40;99.90
66257;DHT22;53049;43.446;3.698;2024-02-23T07:22:21;7.40;99.90
66257;DHT22;53049;43.446;3.698;2024-02-23T07:24:47;7.30;99.90
66257;DHT22;53049;43.446;3.698;2024-02-23T07:27:13;7.30;99.90
66257;DHT22;53049;43.446;3.698;2024-02-23T07:29:38;7.20;99.90
66257;DHT22;53049;43.446;3.698;2024-02-23T07:32:04;7.10;99.90
66257;DHT22;53049;43.446;3.698;2024-02-23T07:34:31;7.10;99.90
66257;DHT22;53049;43.446;3.698;2024-02-23T07:36:57;7.10;99.90
66257;DHT22;53049;43.446;3.698;2024-02-23T07:39:22;7.10;99.90
66257;DHT22;53049;43.446;3.698;2024-02-23T07:41:48;7.00;99.90
66257;DHT22;53049;43.446;3.698;2024-02-23T07:44:14;7.00;99.90
66257;DHT22;53049;43.446;3.698;2024-02-23T07:46:40;7.00;99.90
66257;DHT22;53049;43.446;3.698;2024-02-23T07:49:07;7.10;99.90
66257;DHT22;53049;43.446;3.698;2024-02-23T07:51:33;7.20;99.90
66257;DHT22;53049;43.446;3.698;2024-02-23T07:53:58;7.30;99.90
66257;DHT22;53049;43.446;3.698;2024-02-23T07:56:24;7.30;99.90
66257;DHT22;53049;43.446;3.698;2024-02-23T07:58:50;7.40;99.90
66257;DHT22;53049;43.446;3.698;2024-02-23T08:01:15;7.40;99.90
66257;DHT22;53049;43.446;3.698;2024-02-23T08:03:41;7.50;99.90
66257;DHT22;53049;43.446;3.698;2024-02-23T08:06:07;7.50;99.90
66257;DHT22;53049;43.446;3.698;2024-02-23T08:08:32;7.60;99.90
66257;DHT22;53049;43.446;3.698;2024-02-23T08:11:03;7.80;99.90
66257;DHT22;53049;43.446;3.698;2024-02-23T08:13:29;8.00;99.90
66257;DHT22;53049;43.446;3.698;2024-02-23T08:15:55;8.00;99.90
66257;DHT22;53049;43.446;3.698;2024-02-23T08:18:20;8.10;99.90
66257;DHT22;53049;43.446;3.698;2024-02-23T08:20:48;8.10;99.90
66257;DHT22;53049;43.446;3.698;2024-02-23T08:23:14;8.20;99.90
66257;DHT22;53049;43.446;3.698;2024-02-23T08:25:39;8.30;99.90
66257;DHT22;53049;43.446;3.698;2024-02-23T08:28:06;8.30;99.90
66257;DHT22;53049;43.446;3.698;2024-02-23T08:30:32;8.40;99.90
66257;DHT22;53049;43.446;3.698;2024-02-23T08:32:58;8.50;99.90
66257;DHT22;53049;43.446;3.698;2024-02-23T08:35:25;8.60;99.90
66257;DHT22;53049;43.446;3.698;2024-02-23T08:37:50;8.60;99.90
66257;DHT22;53049;43.446;3.698;2024-02-23T08:40:16;8.70;99.90
66257;DHT22;53049;43.446;3.698;2024-02-23T08:42:42;8.70;99.90
66257;DHT22;53049;43.446;3.698;2024-02-23T08:45:08;8.70;99.90
66257;DHT22;53049;43.446;3.698;2024-02-23T08:47:35;8.80;99.90
66257;DHT22;53049;43.446;3.698;2024-02-23T08:50:01;8.90;99.90
66257;DHT22;53049;43.446;3.698;2024-02-23T08:52:28;9.00;99.90
66257;DHT22;53049;43.446;3.698;2024-02-23T08:54:53;9.10;99.90
66257;DHT22;53049;43.446;3.698;2024-02-23T08:57:19;9.20;99.90
66257;DHT22;53049;43.446;3.698;2024-02-23T08:59:46;9.40;99.90
66257;DHT22;53049;43.446;3.698;2024-02-23T09:02:12;9.60;99.90
66257;DHT22;53049;43.446;3.698;2024-02-23T09:04:37;9.70;99.90
66257;DHT22;53049;43.446;3.698;2024-02-23T09:07:03;9.80;99.90
66257;DHT22;53049;43.446;3.698;2024-02-23T09:09:29;9.90;99.90
66257;DHT22;53049;43.446;3.698;2024-02-23T09:11:55;9.90;99.90
66257;DHT22;53049;43.446;3.698;2024-02-23T09:14:21;9.90;99.90
66257;DHT22;53049;43.446;3.698;2024-02-23T09:16:46;9.90;99.90
66257;DHT22;53049;43.446;3.698;2024-02-23T09:19:16;10.00;99.90
66257;DHT22;53049;43.446;3.698;2024-02-23T09:21:42;9.80;99.90
66257;DHT22;53049;43.446;3.698;2024-02-23T09:24:08;9.80;99.90
66257;DHT22;53049;43.446;3.698;2024-02-23T09:26:33;9.80;99.90
66257;DHT22;53049;43.446;3.698;2024-02-23T09:28:59;9.80;99.90
66257;DHT22;53049;43.446;3.698;2024-02-23T09:31:25;9.80;99.90
66257;DHT22;53049;43.446;3.698;2024-02-23T09:33:51;9.90;99.90
66257;DHT22;53049;43.446;3.698;2024-02-23T09:36:17;10.00;99.90
66257;DHT22;53049;43.446;3.698;2024-02-23T09:38:43;10.00;99.90
66257;DHT22;53049;43.446;3.698;2024-02-23T09:41:19;10.10;99.90
66257;DHT22;53049;43.446;3.698;2024-02-23T09:43:47;10.10;99.90
66257;DHT22;53049;43.446;3.698;2024-02-23T09:46:15;10.10;99.90
66257;DHT22;53049;43.446;3.698;2024-02-23T09:48:45;10.00;99.90
66257;DHT22;53049;43.446;3.698;2024-02-23T09:51:15;10.00;99.90
66257;DHT22;53049;43.446;3.698;2024-02-23T09:53:41;10.10;99.90
66257;DHT22;53049;43.446;3.698;2024-02-23T09:56:10;10.30;99.90
66257;DHT22;53049;43.446;3.698;2024-02-23T09:58:36;10.40;99.90
66257;DHT22;53049;43.446;3.698;2024-02-23T10:01:03;10.50;99.90
66257;DHT22;53049;43.446;3.698;2024-02-23T10:03:30;10.60;99.90
66257;DHT22;53049;43.446;3.698;2024-02-23T10:05:59;10.70;99.90
66257;DHT22;53049;43.446;3.698;2024-02-23T10:08:28;10.70;99.90
66257;DHT22;53049;43.446;3.698;2024-02-23T10:10:54;10.70;99.90
66257;DHT22;53049;43.446;3.698;2024-02-23T10:13:23;10.70;99.90
66257;DHT22;53049;43.446;3.698;2024-02-23T10:15:51;10.70;99.90
66257;DHT22;53049;43.446;3.698;2024-02-23T10:18:18;10.80;99.90
66257;DHT22;53049;43.446;3.698;2024-02-23T10:20:43;10.80;99.90
66257;DHT22;53049;43.446;3.698;2024-02-23T10:23:09;10.90;99.90
66257;DHT22;53049;43.446;3.698;2024-02-23T10:25:36;10.90;99.90
66257;DHT22;53049;43.446;3.698;2024-02-23T10:28:06;11.00;99.90
66257;DHT22;53049;43.446;3.698;2024-02-23T10:30:32;11.20;99.90
66257;DHT22;53049;43.446;3.698;2024-02-23T10:32:58;11.40;99.90
66257;DHT22;53049;43.446;3.698;2024-02-23T10:35:25;11.50;99.90
66257;DHT22;53049;43.446;3.698;2024-02-23T10:37:53;11.70;99.90
66257;DHT22;53049;43.446;3.698;2024-02-23T10:40:20;11.70;99.90
66257;DHT22;53049;43.446;3.698;2024-02-23T10:42:48;11.70;99.90
66257;DHT22;53049;43.446;3.698;2024-02-23T10:45:19;11.70;99.90
66257;DHT22;53049;43.446;3.698;2024-02-23T10:47:48;11.70;99.90
66257;DHT22;53049;43.446;3.698;2024-02-23T10:50:14;11.60;99.90
66257;DHT22;53049;43.446;3.698;2024-02-23T10:52:43;11.50;99.90
66257;DHT22;53049;43.446;3.698;2024-02-23T10:55:09;11.40;99.90
66257;DHT22;53049;43.446;3.698;2024-02-23T10:57:36;11.30;99.90
66257;DHT22;53049;43.446;3.698;2024-02-23T11:00:02;11.30;99.90
66257;DHT22;53049;43.446;3.698;2024-02-23T11:02:33;11.30;99.90
66257;DHT22;53049;43.446;3.698;2024-02-23T11:05:01;11.30;99.90
66257;DHT22;53049;43.446;3.698;2024-02-23T11:07:30;11.30;99.90
66257;DHT22;53049;43.446;3.698;2024-02-23T11:09:59;11.30;99.90
66257;DHT22;53049;43.446;3.698;2024-02-23T11:12:28;11.40;99.90
66257;DHT22;53049;43.446;3.698;2024-02-23T11:14:58;11.30;99.90
66257;DHT22;53049;43.446;3.698;2024-02-23T11:17:27;11.40;99.90
66257;DHT22;53049;43.446;3.698;2024-02-23T11:19:54;11.40;99.90
66257;DHT22;53049;43.446;3.698;2024-02-23T11:22:25;11.40;99.90
66257;DHT22;53049;43.446;3.698;2024-02-23T11:24:51;11.40;99.90
66257;DHT22;53049;43.446;3.698;2024-02-23T11:27:17;11.30;99.90
66257;DHT22;53049;43.446;3.698;2024-02-23T11:29:45;11.40;99.90
66257;DHT22;53049;43.446;3.698;2024-02-23T11:32:13;11.40;99.90
66257;DHT22;53049;43.446;3.698;2024-02-23T11:34:39;11.50;99.90
66257;DHT22;53049;43.446;3.698;2024-02-23T11:37:11;11.40;99.90
66257;DHT22;53049;43.446;3.698;2024-02-23T11:39:38;11.50;99.90
66257;DHT22;53049;43.446;3.698;2024-02-23T11:42:06;11.40;99.90
66257;DHT22;53049;43.446;3.698;2024-02-23T11:44:32;11.40;99.90
66257;DHT22;53049;43.446;3.698;2024-02-23T11:46:58;11.30;99.90
66257;DHT22;53049;43.446;3.698;2024-02-23T11:49:28;11.40;99.90
66257;DHT22;53049;43.446;3.698;2024-02-23T11:51:54;11.40;99.90
66257;DHT22;53049;43.446;3.698;2024-02-23T11:54:21;11.40;99.90
66257;DHT22;53049;43.446;3.698;2024-02-23T11:56:47;11.50;99.90
66257;DHT22;53049;43.446;3.698;2024-02-23T11:59:15;11.60;99.90
66257;DHT22;53049;43.446;3.698;2024-02-23T12:01:41;11.60;99.90
66257;DHT22;53049;43.446;3.698;2024-02-23T12:04:07;11.60;99.90
66257;DHT22;53049;43.446;3.698;2024-02-23T12:06:33;11.50;99.90
66257;DHT22;53049;43.446;3.698;2024-02-23T12:09:00;11.60;99.90
66257;DHT22;53049;43.446;3.698;2024-02-23T12:11:26;11.60;99.90
66257;DHT22;53049;43.446;3.698;2024-02-23T12:13:53;11.50;99.90
66257;DHT22;53049;43.446;3.698;2024-02-23T12:16:21;11.50;99.90
66257;DHT22;53049;43.446;3.698;2024-02-23T12:18:53;11.50;99.90
66257;DHT22;53049;43.446;3.698;2024-02-23T12:21:20;11.60;99.90
66257;DHT22;53049;43.446;3.698;2024-02-23T12:23:48;11.50;99.90
66257;DHT22;53049;43.446;3.698;2024-02-23T12:26:17;11.60;99.90
66257;DHT22;53049;43.446;3.698;2024-02-23T12:28:44;11.70;99.90
66257;DHT22;53049;43.446;3.698;2024-02-23T12:31:10;11.70;99.90
66257;DHT22;53049;43.446;3.698;2024-02-23T12:33:40;11.80;99.90
66257;DHT22;53049;43.446;3.698;2024-02-23T12:36:07;11.90;99.90
66257;DHT22;53049;43.446;3.698;2024-02-23T12:38:33;11.90;99.90
66257;DHT22;53049;43.446;3.698;2024-02-23T12:41:00;11.90;99.90
66257;DHT22;53049;43.446;3.698;2024-02-23T12:43:26;11.90;99.90
66257;DHT22;53049;43.446;3.698;2024-02-23T12:45:53;12.00;99.90
66257;DHT22;53049;43.446;3.698;2024-02-23T12:48:20;12.00;99.90
66257;DHT22;53049;43.446;3.698;2024-02-23T12:50:46;12.10;99.90
66257;DHT22;53049;43.446;3.698;2024-02-23T12:53:35;12.10;99.90
66257;DHT22;53049;43.446;3.698;2024-02-23T12:56:08;12.10;99.90
66257;DHT22;53049;43.446;3.698;2024-02-23T12:58:38;12.20;99.90
66257;DHT22;53049;43.446;3.698;2024-02-23T13:01:04;12.20;99.90
66257;DHT22;53049;43.446;3.698;2024-02-23T13:03:31;12.30;99.90
66257;DHT22;53049;43.446;3.698;2024-02-23T13:05:57;12.20;99.90
66257;DHT22;53049;43.446;3.698;2024-02-23T13:08:24;12.20;99.90
66257;DHT22;53049;43.446;3.698;2024-02-23T13:10:50;12.00;99.90
66257;DHT22;53049;43.446;3.698;2024-02-23T13:13:16;12.00;99.90
66257;DHT22;53049;43.446;3.698;2024-02-23T13:15:43;12.00;99.90
66257;DHT22;53049;43.446;3.698;2024-02-23T13:18:09;11.90;99.90
66257;DHT22;53049;43.446;3.698;2024-02-23T13:20:36;11.90;99.90
66257;DHT22;53049;43.446;3.698;2024-02-23T13:23:02;11.90;99.90
66257;DHT22;53049;43.446;3.698;2024-02-23T13:25:28;12.00;99.90
66257;DHT22;53049;43.446;3.698;2024-02-23T13:27:54;11.90;99.90
66257;DHT22;53049;43.446;3.698;2024-02-23T13:30:20;12.10;99.90
66257;DHT22;53049;43.446;3.698;2024-02-23T13:32:45;12.00;99.90
66257;DHT22;53049;43.446;3.698;2024-02-23T13:35:11;12.00;99.90
66257;DHT22;53049;43.446;3.698;2024-02-23T13:37:37;12.00;99.90
66257;DHT22;53049;43.446;3.698;2024-02-23T13:40:03;12.00;99.90
66257;DHT22;53049;43.446;3.698;2024-02-23T13:42:31;12.10;99.90
66257;DHT22;53049;43.446;3.698;2024-02-23T13:44:56;12.10;99.90
66257;DHT22;53049;43.446;3.698;2024-02-23T13:47:22;12.10;99.90
66257;DHT22;53049;43.446;3.698;2024-02-23T13:49:48;12.10;99.90
66257;DHT22;53049;43.446;3.698;2024-02-23T13:52:13;12.10;99.90
66257;DHT22;53049;43.446;3.698;2024-02-23T13:54:39;12.20;99.90
66257;DHT22;53049;43.446;3.698;2024-02-23T13:57:05;12.10;99.90
66257;DHT22;53049;43.446;3.698;2024-02-23T13:59:30;12.20;99.90
66257;DHT22;53049;43.446;3.698;2024-02-23T14:01:56;12.20;99.90
66257;DHT22;53049;43.446;3.698;2024-02-23T14:04:22;12.20;99.90
66257;DHT22;53049;43.446;3.698;2024-02-23T14:06:47;12.30;99.90
66257;DHT22;53049;43.446;3.698;2024-02-23T14:09:13;12.30;99.90
66257;DHT22;53049;43.446;3.698;2024-02-23T14:11:39;12.30;99.90
66257;DHT22;53049;43.446;3.698;2024-02-23T14:14:05;12.40;99.90
66257;DHT22;53049;43.446;3.698;2024-02-23T14:16:31;12.40;99.90
66257;DHT22;53049;43.446;3.698;2024-02-23T14:18:57;12.50;99.90
66257;DHT22;53049;43.446;3.698;2024-02-23T14:21:23;12.60;99.90
66257;DHT22;53049;43.446;3.698;2024-02-23T14:23:50;12.60;99.90
66257;DHT22;53049;43.446;3.698;2024-02-23T14:26:16;12.60;99.90
66257;DHT22;53049;43.446;3.698;2024-02-23T14:28:42;12.60;99.90
66257;DHT22;53049;43.446;3.698;2024-02-23T14:31:08;12.50;99.90
66257;DHT22;53049;43.446;3.698;2024-02-23T14:33:33;12.40;99.90
66257;DHT22;53049;43.446;3.698;2024-02-23T14:35:59;12.40;99.90
66257;DHT22;53049;43.446;3.698;2024-02-23T14:38:24;12.30;99.90
66257;DHT22;53049;43.446;3.698;2024-02-23T14:40:50;12.20;99.90
66257;DHT22;53049;43.446;3.698;2024-02-23T14:43:16;12.10;99.90
66257;DHT22;53049;43.446;3.698;2024-02-23T14:45:42;12.00;99.90
66257;DHT22;53049;43.446;3.698;2024-02-23T14:48:08;12.00;99.90
66257;DHT22;53049;43.446;3.698;2024-02-23T14:50:33;12.10;99.90
66257;DHT22;53049;43.446;3.698;2024-02-23T14:52:59;12.20;99.90
66257;DHT22;53049;43.446;3.698;2024-02-23T14:55:25;12.10;99.90
66257;DHT22;53049;43.446;3.698;2024-02-23T14:57:51;12.20;99.90
66257;DHT22;53049;43.446;3.698;2024-02-23T15:00:17;12.10;99.90
66257;DHT22;53049;43.446;3.698;2024-02-23T15:02:42;12.00;99.90
66257;DHT22;53049;43.446;3.698;2024-02-23T15:05:09;12.00;99.90
66257;DHT22;53049;43.446;3.698;2024-02-23T15:07:35;12.00;99.90
66257;DHT22;53049;43.446;3.698;2024-02-23T15:10:04;11.90;99.90
66257;DHT22;53049;43.446;3.698;2024-02-23T15:12:34;11.90;99.90
66257;DHT22;53049;43.446;3.698;2024-02-23T15:15:00;11.70;99.90
66257;DHT22;53049;43.446;3.698;2024-02-23T15:17:26;11.70;99.90
66257;DHT22;53049;43.446;3.698;2024-02-23T15:19:52;11.60;99.90
66257;DHT22;53049;43.446;3.698;2024-02-23T15:22:17;11.50;99.90
66257;DHT22;53049;43.446;3.698;2024-02-23T15:24:44;11.40;99.90
66257;DHT22;53049;43.446;3.698;2024-02-23T15:27:18;11.40;99.90
66257;DHT22;53049;43.446;3.698;2024-02-23T15:29:45;11.40;99.90
66257;DHT22;53049;43.446;3.698;2024-02-23T15:32:10;11.40;99.90